sensor_id;sensor_type;location;lat;lon;timestamp;P1;durP1;ratioP1;P2;durP2;ratioP2
52188;SDS011;38162;45.926;13.608;2022-12-20T00:01:31;33.90;;;20.70;;
52188;SDS011;38162;45.926;13.608;2022-12-20T00:03:58;34.43;;;21.07;;
52188;SDS011;38162;45.926;13.608;2022-12-20T00:06:26;35.97;;;20.80;;
52188;SDS011;38162;45.926;13.608;2022-12-20T00:08:55;34.47;;;21.03;;
52188;SDS011;38162;45.926;13.608;2022-12-20T00:11:22;33.03;;;21.20;;
52188;SDS011;38162;45.926;13.608;2022-12-20T00:13:48;32.60;;;22.13;;
52188;SDS011;38162;45.926;13.608;2022-12-20T00:16:18;31.17;;;20.90;;
52188;SDS011;38162;45.926;13.608;2022-12-20T00:18:45;29.20;;;19.50;;
52188;SDS011;38162;45.926;13.608;2022-12-20T00:21:12;32.07;;;20.70;;
52188;SDS011;38162;45.926;13.608;2022-12-20T00:23:38;30.33;;;20.03;;
52188;SDS011;38162;45.926;13.608;2022-12-20T00:26:06;31.10;;;20.30;;
52188;SDS011;38162;45.926;13.608;2022-12-20T00:28:32;35.93;;;21.03;;
52188;SDS011;38162;45.926;13.608;2022-12-20T00:30:59;31.97;;;20.37;;
52188;SDS011;38162;45.926;13.608;2022-12-20T00:33:25;34.27;;;21.83;;
52188;SDS011;38162;45.926;13.608;2022-12-20T00:35:53;30.13;;;19.87;;
52188;SDS011;38162;45.926;13.608;2022-12-20T00:38:20;35.80;;;20.63;;
52188;SDS011;38162;45.926;13.608;2022-12-20T00:40:46;31.27;;;19.93;;
52188;SDS011;38162;45.926;13.608;2022-12-20T00:43:12;32.83;;;21.60;;
52188;SDS011;38162;45.926;13.608;2022-12-20T00:45:38;30.67;;;19.97;;
52188;SDS011;38162;45.926;13.608;2022-12-20T00:48:04;31.60;;;21.27;;
52188;SDS011;38162;45.926;13.608;2022-12-20T00:50:30;29.77;;;19.43;;
52188;SDS011;38162;45.926;13.608;2022-12-20T00:52:56;31.77;;;21.53;;
52188;SDS011;38162;45.926;13.608;2022-12-20T00:55:23;35.93;;;21.47;;
52188;SDS011;38162;45.926;13.608;2022-12-20T00:57:49;36.57;;;22.87;;
52188;SDS011;38162;45.926;13.608;2022-12-20T01:00:15;36.63;;;22.37;;
52188;SDS011;38162;45.926;13.608;2022-12-20T01:02:41;33.67;;;22.43;;
52188;SDS011;38162;45.926;13.608;2022-12-20T01:05:07;40.73;;;25.07;;
52188;SDS011;38162;45.926;13.608;2022-12-20T01:07:33;36.33;;;23.87;;
52188;SDS011;38162;45.926;13.608;2022-12-20T01:09:59;40.30;;;23.97;;
52188;SDS011;38162;45.926;13.608;2022-12-20T01:12:29;43.00;;;25.97;;
52188;SDS011;38162;45.926;13.608;2022-12-20T01:24:14;41.93;;;26.70;;
52188;SDS011;38162;45.926;13.608;2022-12-20T01:32:44;45.33;;;26.37;;
52188;SDS011;38162;45.926;13.608;2022-12-20T01:35:39;41.17;;;25.27;;
52188;SDS011;38162;45.926;13.608;2022-12-20T01:38:17;41.77;;;26.37;;
52188;SDS011;38162;45.926;13.608;2022-12-20T01:47:16;40.73;;;24.57;;
52188;SDS011;38162;45.926;13.608;2022-12-20T01:49:43;44.87;;;26.73;;
52188;SDS011;38162;45.926;13.608;2022-12-20T01:52:14;38.50;;;25.10;;
52188;SDS011;38162;45.926;13.608;2022-12-20T01:57:08;41.10;;;24.73;;
52188;SDS011;38162;45.926;13.608;2022-12-20T01:59:35;44.87;;;25.23;;
52188;SDS011;38162;45.926;13.608;2022-12-20T02:02:04;36.20;;;23.77;;
52188;SDS011;38162;45.926;13.608;2022-12-20T02:04:31;39.77;;;25.07;;
52188;SDS011;38162;45.926;13.608;2022-12-20T02:06:58;42.93;;;24.10;;
52188;SDS011;38162;45.926;13.608;2022-12-20T02:09:25;41.67;;;24.03;;
52188;SDS011;38162;45.926;13.608;2022-12-20T02:11:56;39.67;;;23.93;;
52188;SDS011;38162;45.926;13.608;2022-12-20T02:19:46;38.08;;;24.50;;
52188;SDS011;38162;45.926;13.608;2022-12-20T02:24:51;38.00;;;24.50;;
52188;SDS011;38162;45.926;13.608;2022-12-20T02:27:42;43.23;;;24.50;;
52188;SDS011;38162;45.926;13.608;2022-12-20T02:30:12;39.57;;;24.53;;
52188;SDS011;38162;45.926;13.608;2022-12-20T02:32:41;39.13;;;25.53;;
52188;SDS011;38162;45.926;13.608;2022-12-20T02:35:11;39.87;;;25.20;;
52188;SDS011;38162;45.926;13.608;2022-12-20T02:37:46;38.27;;;24.43;;
52188;SDS011;38162;45.926;13.608;2022-12-20T02:40:12;40.77;;;25.63;;
52188;SDS011;38162;45.926;13.608;2022-12-20T02:42:39;41.80;;;26.70;;
52188;SDS011;38162;45.926;13.608;2022-12-20T02:45:05;43.27;;;25.80;;
52188;SDS011;38162;45.926;13.608;2022-12-20T02:47:58;42.47;;;25.43;;
52188;SDS011;38162;45.926;13.608;2022-12-20T02:50:33;42.93;;;24.93;;
52188;SDS011;38162;45.926;13.608;2022-12-20T02:53:00;43.77;;;25.63;;
52188;SDS011;38162;45.926;13.608;2022-12-20T02:55:36;41.43;;;24.87;;
52188;SDS011;38162;45.926;13.608;2022-12-20T02:58:11;42.53;;;25.23;;
52188;SDS011;38162;45.926;13.608;2022-12-20T03:19:17;32.73;;;20.17;;
52188;SDS011;38162;45.926;13.608;2022-12-20T03:22:14;31.13;;;20.43;;
52188;SDS011;38162;45.926;13.608;2022-12-20T03:24:59;30.67;;;18.57;;
52188;SDS011;38162;45.926;13.608;2022-12-20T03:30:30;34.20;;;19.33;;
52188;SDS011;38162;45.926;13.608;2022-12-20T03:36:02;26.73;;;17.50;;
52188;SDS011;38162;45.926;13.608;2022-12-20T03:38:28;28.57;;;18.20;;
52188;SDS011;38162;45.926;13.608;2022-12-20T03:40:54;25.97;;;17.33;;
52188;SDS011;38162;45.926;13.608;2022-12-20T03:43:20;29.73;;;17.47;;
52188;SDS011;38162;45.926;13.608;2022-12-20T03:45:46;26.57;;;17.30;;
52188;SDS011;38162;45.926;13.608;2022-12-20T03:48:12;23.90;;;16.20;;
52188;SDS011;38162;45.926;13.608;2022-12-20T03:50:39;26.73;;;17.37;;
52188;SDS011;38162;45.926;13.608;2022-12-20T03:53:05;23.80;;;16.53;;
52188;SDS011;38162;45.926;13.608;2022-12-20T03:55:32;24.73;;;17.23;;
52188;SDS011;38162;45.926;13.608;2022-12-20T03:57:58;26.10;;;16.93;;
52188;SDS011;38162;45.926;13.608;2022-12-20T04:00:24;26.90;;;17.57;;
52188;SDS011;38162;45.926;13.608;2022-12-20T04:02:50;26.10;;;16.20;;
52188;SDS011;38162;45.926;13.608;2022-12-20T04:05:16;27.83;;;17.20;;
52188;SDS011;38162;45.926;13.608;2022-12-20T04:07:42;25.27;;;16.70;;
52188;SDS011;38162;45.926;13.608;2022-12-20T04:10:09;26.63;;;16.80;;
52188;SDS011;38162;45.926;13.608;2022-12-20T04:12:36;25.00;;;16.53;;
52188;SDS011;38162;45.926;13.608;2022-12-20T04:15:02;24.13;;;16.37;;
52188;SDS011;38162;45.926;13.608;2022-12-20T04:17:28;28.60;;;16.67;;
52188;SDS011;38162;45.926;13.608;2022-12-20T04:19:55;24.73;;;16.50;;
52188;SDS011;38162;45.926;13.608;2022-12-20T04:22:21;24.70;;;16.60;;
52188;SDS011;38162;45.926;13.608;2022-12-20T04:24:47;26.13;;;15.33;;
52188;SDS011;38162;45.926;13.608;2022-12-20T04:27:13;24.33;;;15.33;;
52188;SDS011;38162;45.926;13.608;2022-12-20T04:29:39;25.53;;;16.57;;
52188;SDS011;38162;45.926;13.608;2022-12-20T04:32:05;24.60;;;15.90;;
52188;SDS011;38162;45.926;13.608;2022-12-20T04:34:31;29.70;;;18.67;;
52188;SDS011;38162;45.926;13.608;2022-12-20T04:36:57;33.90;;;19.83;;
52188;SDS011;38162;45.926;13.608;2022-12-20T04:39:23;32.77;;;22.17;;
52188;SDS011;38162;45.926;13.608;2022-12-20T04:41:49;32.57;;;21.27;;
52188;SDS011;38162;45.926;13.608;2022-12-20T04:44:15;35.47;;;21.80;;
52188;SDS011;38162;45.926;13.608;2022-12-20T04:46:42;31.07;;;20.40;;
52188;SDS011;38162;45.926;13.608;2022-12-20T04:49:08;33.77;;;20.90;;
52188;SDS011;38162;45.926;13.608;2022-12-20T04:51:37;38.27;;;22.40;;
52188;SDS011;38162;45.926;13.608;2022-12-20T04:57:19;41.13;;;23.33;;
52188;SDS011;38162;45.926;13.608;2022-12-20T05:00:24;36.10;;;21.63;;
52188;SDS011;38162;45.926;13.608;2022-12-20T05:02:55;36.67;;;21.48;;
52188;SDS011;38162;45.926;13.608;2022-12-20T05:05:30;37.30;;;22.57;;
52188;SDS011;38162;45.926;13.608;2022-12-20T05:17:20;34.27;;;20.90;;
52188;SDS011;38162;45.926;13.608;2022-12-20T05:19:55;32.33;;;21.17;;
52188;SDS011;38162;45.926;13.608;2022-12-20T05:22:24;31.77;;;19.30;;
52188;SDS011;38162;45.926;13.608;2022-12-20T05:25:09;32.87;;;19.93;;
52188;SDS011;38162;45.926;13.608;2022-12-20T05:27:54;30.43;;;20.53;;
52188;SDS011;38162;45.926;13.608;2022-12-20T05:30:20;32.30;;;19.13;;
52188;SDS011;38162;45.926;13.608;2022-12-20T05:32:47;37.90;;;20.10;;
52188;SDS011;38162;45.926;13.608;2022-12-20T05:35:13;31.70;;;20.23;;
52188;SDS011;38162;45.926;13.608;2022-12-20T05:37:39;30.87;;;19.13;;
52188;SDS011;38162;45.926;13.608;2022-12-20T05:40:05;30.23;;;18.43;;
52188;SDS011;38162;45.926;13.608;2022-12-20T05:42:32;29.10;;;18.97;;
52188;SDS011;38162;45.926;13.608;2022-12-20T05:44:58;30.30;;;18.40;;
52188;SDS011;38162;45.926;13.608;2022-12-20T05:47:27;29.43;;;17.97;;
52188;SDS011;38162;45.926;13.608;2022-12-20T05:49:57;31.07;;;18.77;;
52188;SDS011;38162;45.926;13.608;2022-12-20T05:52:23;27.97;;;18.30;;
52188;SDS011;38162;45.926;13.608;2022-12-20T05:54:49;31.13;;;18.57;;
52188;SDS011;38162;45.926;13.608;2022-12-20T05:57:16;28.97;;;19.03;;
52188;SDS011;38162;45.926;13.608;2022-12-20T05:59:42;32.47;;;19.63;;
52188;SDS011;38162;45.926;13.608;2022-12-20T06:02:08;30.43;;;19.43;;
52188;SDS011;38162;45.926;13.608;2022-12-20T06:04:35;29.93;;;19.03;;
52188;SDS011;38162;45.926;13.608;2022-12-20T06:07:01;30.40;;;19.77;;
52188;SDS011;38162;45.926;13.608;2022-12-20T06:09:27;28.50;;;18.50;;
52188;SDS011;38162;45.926;13.608;2022-12-20T06:11:54;32.30;;;19.07;;
52188;SDS011;38162;45.926;13.608;2022-12-20T06:14:20;29.37;;;19.23;;
52188;SDS011;38162;45.926;13.608;2022-12-20T06:16:46;34.07;;;20.53;;
52188;SDS011;38162;45.926;13.608;2022-12-20T06:19:12;27.77;;;18.67;;
52188;SDS011;38162;45.926;13.608;2022-12-20T06:21:38;31.83;;;19.67;;
52188;SDS011;38162;45.926;13.608;2022-12-20T06:24:05;29.63;;;18.73;;
52188;SDS011;38162;45.926;13.608;2022-12-20T06:26:32;28.83;;;19.20;;
52188;SDS011;38162;45.926;13.608;2022-12-20T06:29:04;31.47;;;19.53;;
52188;SDS011;38162;45.926;13.608;2022-12-20T06:31:34;31.20;;;18.80;;
52188;SDS011;38162;45.926;13.608;2022-12-20T06:34:00;31.63;;;20.33;;
52188;SDS011;38162;45.926;13.608;2022-12-20T06:36:26;41.17;;;22.40;;
52188;SDS011;38162;45.926;13.608;2022-12-20T06:38:53;37.23;;;22.53;;
52188;SDS011;38162;45.926;13.608;2022-12-20T06:41:22;49.53;;;23.90;;
52188;SDS011;38162;45.926;13.608;2022-12-20T06:47:04;44.47;;;25.77;;
52188;SDS011;38162;45.926;13.608;2022-12-20T06:52:49;46.27;;;25.10;;
52188;SDS011;38162;45.926;13.608;2022-12-20T06:58:38;43.80;;;24.70;;
52188;SDS011;38162;45.926;13.608;2022-12-20T07:04:05;51.67;;;25.13;;
52188;SDS011;38162;45.926;13.608;2022-12-20T07:10:36;39.13;;;21.13;;
52188;SDS011;38162;45.926;13.608;2022-12-20T07:12:52;41.27;;;20.03;;
52188;SDS011;38162;45.926;13.608;2022-12-20T07:15:18;42.83;;;21.60;;
52188;SDS011;38162;45.926;13.608;2022-12-20T07:17:46;48.63;;;22.23;;
52188;SDS011;38162;45.926;13.608;2022-12-20T07:20:12;47.07;;;23.47;;
52188;SDS011;38162;45.926;13.608;2022-12-20T07:22:39;51.93;;;22.73;;
52188;SDS011;38162;45.926;13.608;2022-12-20T07:25:05;47.77;;;23.30;;
52188;SDS011;38162;45.926;13.608;2022-12-20T07:27:31;55.97;;;24.67;;
52188;SDS011;38162;45.926;13.608;2022-12-20T07:29:57;46.67;;;21.80;;
52188;SDS011;38162;45.926;13.608;2022-12-20T07:32:23;38.80;;;22.27;;
52188;SDS011;38162;45.926;13.608;2022-12-20T07:34:49;43.60;;;22.67;;
52188;SDS011;38162;45.926;13.608;2022-12-20T07:37:15;52.43;;;23.13;;
52188;SDS011;38162;45.926;13.608;2022-12-20T07:39:41;42.40;;;23.43;;
52188;SDS011;38162;45.926;13.608;2022-12-20T07:42:08;48.00;;;22.80;;
52188;SDS011;38162;45.926;13.608;2022-12-20T07:44:34;43.23;;;21.90;;
52188;SDS011;38162;45.926;13.608;2022-12-20T07:47:00;43.33;;;21.47;;
52188;SDS011;38162;45.926;13.608;2022-12-20T07:49:26;38.03;;;21.37;;
52188;SDS011;38162;45.926;13.608;2022-12-20T07:51:53;37.20;;;21.13;;
52188;SDS011;38162;45.926;13.608;2022-12-20T07:54:22;39.07;;;19.03;;
52188;SDS011;38162;45.926;13.608;2022-12-20T07:56:50;38.60;;;18.90;;
52188;SDS011;38162;45.926;13.608;2022-12-20T07:59:18;26.70;;;18.13;;
52188;SDS011;38162;45.926;13.608;2022-12-20T08:01:44;32.33;;;20.10;;
52188;SDS011;38162;45.926;13.608;2022-12-20T08:04:18;33.43;;;19.27;;
52188;SDS011;38162;45.926;13.608;2022-12-20T08:06:46;35.63;;;18.47;;
52188;SDS011;38162;45.926;13.608;2022-12-20T08:09:12;35.40;;;18.70;;
52188;SDS011;38162;45.926;13.608;2022-12-20T08:11:40;31.07;;;18.63;;
52188;SDS011;38162;45.926;13.608;2022-12-20T08:14:06;33.20;;;17.17;;
52188;SDS011;38162;45.926;13.608;2022-12-20T08:16:33;31.60;;;18.17;;
52188;SDS011;38162;45.926;13.608;2022-12-20T08:18:59;26.97;;;16.90;;
52188;SDS011;38162;45.926;13.608;2022-12-20T08:21:25;32.30;;;17.90;;
52188;SDS011;38162;45.926;13.608;2022-12-20T08:23:51;31.30;;;18.73;;
52188;SDS011;38162;45.926;13.608;2022-12-20T08:26:18;39.73;;;19.03;;
52188;SDS011;38162;45.926;13.608;2022-12-20T08:28:53;38.07;;;19.10;;
52188;SDS011;38162;45.926;13.608;2022-12-20T08:31:55;27.63;;;17.83;;
52188;SDS011;38162;45.926;13.608;2022-12-20T08:35:13;35.23;;;18.67;;
52188;SDS011;38162;45.926;13.608;2022-12-20T08:37:44;30.80;;;17.97;;
52188;SDS011;38162;45.926;13.608;2022-12-20T08:40:16;33.70;;;18.80;;
52188;SDS011;38162;45.926;13.608;2022-12-20T08:48:42;28.43;;;19.30;;
52188;SDS011;38162;45.926;13.608;2022-12-20T08:51:09;35.40;;;19.87;;
52188;SDS011;38162;45.926;13.608;2022-12-20T08:53:41;36.20;;;19.80;;
52188;SDS011;38162;45.926;13.608;2022-12-20T08:56:11;30.40;;;19.50;;
52188;SDS011;38162;45.926;13.608;2022-12-20T08:58:49;30.33;;;18.53;;
52188;SDS011;38162;45.926;13.608;2022-12-20T09:01:31;27.33;;;18.53;;
52188;SDS011;38162;45.926;13.608;2022-12-20T09:03:58;30.77;;;18.60;;
52188;SDS011;38162;45.926;13.608;2022-12-20T09:06:27;35.40;;;20.20;;
52188;SDS011;38162;45.926;13.608;2022-12-20T09:08:54;29.60;;;19.43;;
52188;SDS011;38162;45.926;13.608;2022-12-20T09:11:22;30.60;;;19.60;;
52188;SDS011;38162;45.926;13.608;2022-12-20T09:13:50;32.93;;;19.83;;
52188;SDS011;38162;45.926;13.608;2022-12-20T09:16:18;33.27;;;19.47;;
52188;SDS011;38162;45.926;13.608;2022-12-20T09:18:51;30.57;;;20.20;;
52188;SDS011;38162;45.926;13.608;2022-12-20T09:21:18;38.58;;;22.10;;
52188;SDS011;38162;45.926;13.608;2022-12-20T09:23:44;36.50;;;21.47;;
52188;SDS011;38162;45.926;13.608;2022-12-20T09:26:11;32.87;;;21.60;;
52188;SDS011;38162;45.926;13.608;2022-12-20T09:28:39;36.93;;;21.53;;
52188;SDS011;38162;45.926;13.608;2022-12-20T09:31:06;40.77;;;26.10;;
52188;SDS011;38162;45.926;13.608;2022-12-20T09:33:33;38.20;;;24.33;;
52188;SDS011;38162;45.926;13.608;2022-12-20T09:35:59;40.20;;;24.23;;
52188;SDS011;38162;45.926;13.608;2022-12-20T09:38:26;39.23;;;23.73;;
52188;SDS011;38162;45.926;13.608;2022-12-20T09:40:54;32.43;;;21.30;;
52188;SDS011;38162;45.926;13.608;2022-12-20T09:43:22;33.23;;;22.00;;
52188;SDS011;38162;45.926;13.608;2022-12-20T09:45:52;33.43;;;19.53;;
52188;SDS011;38162;45.926;13.608;2022-12-20T09:48:39;36.10;;;20.65;;
52188;SDS011;38162;45.926;13.608;2022-12-20T09:51:12;31.13;;;19.13;;
52188;SDS011;38162;45.926;13.608;2022-12-20T09:56:42;37.50;;;19.37;;
52188;SDS011;38162;45.926;13.608;2022-12-20T10:01:38;30.90;;;20.27;;
52188;SDS011;38162;45.926;13.608;2022-12-20T10:09:41;32.83;;;21.40;;
52188;SDS011;38162;45.926;13.608;2022-12-20T10:20:38;34.97;;;21.10;;
52188;SDS011;38162;45.926;13.608;2022-12-20T10:23:45;32.67;;;19.87;;
52188;SDS011;38162;45.926;13.608;2022-12-20T10:26:14;34.90;;;22.37;;
52188;SDS011;38162;45.926;13.608;2022-12-20T10:28:43;33.50;;;21.87;;
52188;SDS011;38162;45.926;13.608;2022-12-20T10:31:13;36.22;;;21.98;;
52188;SDS011;38162;45.926;13.608;2022-12-20T10:33:41;32.90;;;20.57;;
52188;SDS011;38162;45.926;13.608;2022-12-20T10:36:22;32.70;;;20.37;;
52188;SDS011;38162;45.926;13.608;2022-12-20T10:38:58;32.80;;;18.97;;
52188;SDS011;38162;45.926;13.608;2022-12-20T10:44:23;27.97;;;18.40;;
52188;SDS011;38162;45.926;13.608;2022-12-20T10:46:57;29.30;;;18.57;;
52188;SDS011;38162;45.926;13.608;2022-12-20T10:49:46;30.55;;;18.88;;
52188;SDS011;38162;45.926;13.608;2022-12-20T10:52:18;28.10;;;18.80;;
52188;SDS011;38162;45.926;13.608;2022-12-20T10:54:44;31.40;;;19.03;;
52188;SDS011;38162;45.926;13.608;2022-12-20T11:00:09;33.57;;;20.07;;
52188;SDS011;38162;45.926;13.608;2022-12-20T11:05:55;28.10;;;19.23;;
52188;SDS011;38162;45.926;13.608;2022-12-20T11:08:29;35.03;;;20.02;;
52188;SDS011;38162;45.926;13.608;2022-12-20T11:11:16;31.80;;;19.50;;
52188;SDS011;38162;45.926;13.608;2022-12-20T11:13:44;28.13;;;18.93;;
52188;SDS011;38162;45.926;13.608;2022-12-20T11:27:24;33.10;;;19.47;;
52188;SDS011;38162;45.926;13.608;2022-12-20T11:30:22;27.40;;;18.57;;
52188;SDS011;38162;45.926;13.608;2022-12-20T11:33:04;30.17;;;19.03;;
52188;SDS011;38162;45.926;13.608;2022-12-20T11:57:15;33.70;;;22.40;;
52188;SDS011;38162;45.926;13.608;2022-12-20T11:59:52;37.43;;;23.37;;
52188;SDS011;38162;45.926;13.608;2022-12-20T12:05:05;40.92;;;23.42;;
52188;SDS011;38162;45.926;13.608;2022-12-20T12:07:39;38.50;;;24.43;;
52188;SDS011;38162;45.926;13.608;2022-12-20T12:12:44;38.23;;;24.10;;
52188;SDS011;38162;45.926;13.608;2022-12-20T12:17:51;38.77;;;25.83;;
52188;SDS011;38162;45.926;13.608;2022-12-20T12:23:20;44.33;;;27.13;;
52188;SDS011;38162;45.926;13.608;2022-12-20T12:26:12;55.63;;;28.73;;
52188;SDS011;38162;45.926;13.608;2022-12-20T12:28:53;51.70;;;28.90;;
52188;SDS011;38162;45.926;13.608;2022-12-20T12:39:30;43.97;;;28.30;;
52188;SDS011;38162;45.926;13.608;2022-12-20T12:42:27;40.73;;;28.50;;
52188;SDS011;38162;45.926;13.608;2022-12-20T12:48:17;41.17;;;29.10;;
52188;SDS011;38162;45.926;13.608;2022-12-20T12:50:45;43.33;;;27.73;;
52188;SDS011;38162;45.926;13.608;2022-12-20T12:53:25;51.45;;;29.92;;
52188;SDS011;38162;45.926;13.608;2022-12-20T13:07:27;40.57;;;27.47;;
52188;SDS011;38162;45.926;13.608;2022-12-20T13:09:56;43.27;;;28.90;;
52188;SDS011;38162;45.926;13.608;2022-12-20T13:20:19;43.73;;;27.90;;
52188;SDS011;38162;45.926;13.608;2022-12-20T13:25:40;41.63;;;27.83;;
52188;SDS011;38162;45.926;13.608;2022-12-20T13:41:24;48.13;;;29.83;;
52188;SDS011;38162;45.926;13.608;2022-12-20T13:49:39;40.83;;;27.93;;
52188;SDS011;38162;45.926;13.608;2022-12-20T13:54:35;36.33;;;24.77;;
52188;SDS011;38162;45.926;13.608;2022-12-20T13:57:06;36.23;;;25.13;;
52188;SDS011;38162;45.926;13.608;2022-12-20T13:59:33;35.13;;;24.63;;
52188;SDS011;38162;45.926;13.608;2022-12-20T14:02:00;38.07;;;25.93;;
52188;SDS011;38162;45.926;13.608;2022-12-20T14:04:41;36.93;;;25.63;;
52188;SDS011;38162;45.926;13.608;2022-12-20T14:07:12;41.78;;;27.15;;
52188;SDS011;38162;45.926;13.608;2022-12-20T14:09:45;40.70;;;27.63;;
52188;SDS011;38162;45.926;13.608;2022-12-20T14:12:20;53.87;;;35.83;;
52188;SDS011;38162;45.926;13.608;2022-12-20T14:15:19;51.03;;;31.20;;
52188;SDS011;38162;45.926;13.608;2022-12-20T14:17:50;51.17;;;30.50;;
52188;SDS011;38162;45.926;13.608;2022-12-20T14:20:16;50.03;;;30.23;;
52188;SDS011;38162;45.926;13.608;2022-12-20T14:25:33;42.97;;;29.03;;
52188;SDS011;38162;45.926;13.608;2022-12-20T14:30:59;46.70;;;29.58;;
52188;SDS011;38162;45.926;13.608;2022-12-20T14:36:19;47.88;;;29.17;;
52188;SDS011;38162;45.926;13.608;2022-12-20T14:38:49;44.03;;;30.17;;
52188;SDS011;38162;45.926;13.608;2022-12-20T14:44:02;49.67;;;31.30;;
52188;SDS011;38162;45.926;13.608;2022-12-20T14:46:31;45.50;;;29.93;;
52188;SDS011;38162;45.926;13.608;2022-12-20T14:51:46;46.27;;;29.37;;
52188;SDS011;38162;45.926;13.608;2022-12-20T14:54:30;42.87;;;29.13;;
52188;SDS011;38162;45.926;13.608;2022-12-20T14:56:57;44.70;;;29.90;;
52188;SDS011;38162;45.926;13.608;2022-12-20T14:59:25;44.03;;;29.70;;
52188;SDS011;38162;45.926;13.608;2022-12-20T15:01:52;46.37;;;29.20;;
52188;SDS011;38162;45.926;13.608;2022-12-20T15:04:20;42.33;;;30.33;;
52188;SDS011;38162;45.926;13.608;2022-12-20T15:06:48;42.10;;;28.47;;
52188;SDS011;38162;45.926;13.608;2022-12-20T15:09:15;45.93;;;30.20;;
52188;SDS011;38162;45.926;13.608;2022-12-20T15:11:42;51.23;;;34.47;;
52188;SDS011;38162;45.926;13.608;2022-12-20T15:16:51;66.83;;;47.60;;
52188;SDS011;38162;45.926;13.608;2022-12-20T15:19:17;59.17;;;44.17;;
52188;SDS011;38162;45.926;13.608;2022-12-20T15:21:43;59.87;;;39.37;;
52188;SDS011;38162;45.926;13.608;2022-12-20T15:24:13;48.37;;;32.10;;
52188;SDS011;38162;45.926;13.608;2022-12-20T15:29:12;50.60;;;28.77;;
52188;SDS011;38162;45.926;13.608;2022-12-20T15:31:44;39.30;;;26.83;;
52188;SDS011;38162;45.926;13.608;2022-12-20T15:34:14;40.10;;;28.53;;
52188;SDS011;38162;45.926;13.608;2022-12-20T15:36:45;42.03;;;27.67;;
52188;SDS011;38162;45.926;13.608;2022-12-20T15:39:11;39.47;;;29.03;;
52188;SDS011;38162;45.926;13.608;2022-12-20T15:41:38;42.20;;;28.80;;
52188;SDS011;38162;45.926;13.608;2022-12-20T15:44:14;42.47;;;29.17;;
52188;SDS011;38162;45.926;13.608;2022-12-20T15:49:11;43.13;;;28.83;;
52188;SDS011;38162;45.926;13.608;2022-12-20T15:51:39;39.60;;;27.97;;
52188;SDS011;38162;45.926;13.608;2022-12-20T15:54:27;37.63;;;27.33;;
52188;SDS011;38162;45.926;13.608;2022-12-20T15:56:56;42.03;;;27.67;;
52188;SDS011;38162;45.926;13.608;2022-12-20T16:10:02;40.37;;;27.87;;
52188;SDS011;38162;45.926;13.608;2022-12-20T16:19:23;41.43;;;27.33;;
52188;SDS011;38162;45.926;13.608;2022-12-20T16:28:21;40.23;;;28.67;;
52188;SDS011;38162;45.926;13.608;2022-12-20T16:30:50;42.27;;;28.03;;
52188;SDS011;38162;45.926;13.608;2022-12-20T16:33:19;41.63;;;29.10;;
52188;SDS011;38162;45.926;13.608;2022-12-20T16:35:45;43.50;;;29.23;;
52188;SDS011;38162;45.926;13.608;2022-12-20T16:38:12;46.77;;;30.27;;
52188;SDS011;38162;45.926;13.608;2022-12-20T16:40:38;39.30;;;28.33;;
52188;SDS011;38162;45.926;13.608;2022-12-20T16:43:04;42.07;;;29.17;;
52188;SDS011;38162;45.926;13.608;2022-12-20T16:45:30;48.43;;;30.67;;
52188;SDS011;38162;45.926;13.608;2022-12-20T16:47:57;39.60;;;27.10;;
52188;SDS011;38162;45.926;13.608;2022-12-20T16:50:23;50.83;;;31.37;;
52188;SDS011;38162;45.926;13.608;2022-12-20T16:52:50;43.37;;;29.63;;
52188;SDS011;38162;45.926;13.608;2022-12-20T16:55:20;43.87;;;30.57;;
52188;SDS011;38162;45.926;13.608;2022-12-20T16:57:51;45.00;;;30.27;;
52188;SDS011;38162;45.926;13.608;2022-12-20T17:00:21;41.40;;;28.00;;
52188;SDS011;38162;45.926;13.608;2022-12-20T17:02:49;48.37;;;30.00;;
52188;SDS011;38162;45.926;13.608;2022-12-20T17:05:31;41.37;;;29.63;;
52188;SDS011;38162;45.926;13.608;2022-12-20T17:08:00;54.07;;;33.17;;
52188;SDS011;38162;45.926;13.608;2022-12-20T17:10:26;50.73;;;33.37;;
52188;SDS011;38162;45.926;13.608;2022-12-20T17:12:54;48.40;;;31.20;;
52188;SDS011;38162;45.926;13.608;2022-12-20T17:15:25;46.50;;;34.07;;
52188;SDS011;38162;45.926;13.608;2022-12-20T17:17:53;56.63;;;33.95;;
52188;SDS011;38162;45.926;13.608;2022-12-20T17:20:19;50.67;;;35.97;;
52188;SDS011;38162;45.926;13.608;2022-12-20T17:22:47;51.10;;;36.17;;
52188;SDS011;38162;45.926;13.608;2022-12-20T17:25:33;52.50;;;36.17;;
52188;SDS011;38162;45.926;13.608;2022-12-20T17:28:00;55.53;;;36.17;;
52188;SDS011;38162;45.926;13.608;2022-12-20T17:30:26;53.33;;;37.30;;
52188;SDS011;38162;45.926;13.608;2022-12-20T17:32:52;54.53;;;35.43;;
52188;SDS011;38162;45.926;13.608;2022-12-20T17:35:20;52.63;;;35.63;;
52188;SDS011;38162;45.926;13.608;2022-12-20T17:37:46;54.53;;;35.33;;
52188;SDS011;38162;45.926;13.608;2022-12-20T17:40:13;52.23;;;36.90;;
52188;SDS011;38162;45.926;13.608;2022-12-20T17:42:40;52.67;;;34.80;;
52188;SDS011;38162;45.926;13.608;2022-12-20T17:45:26;54.00;;;35.57;;
52188;SDS011;38162;45.926;13.608;2022-12-20T17:47:57;47.20;;;33.17;;
52188;SDS011;38162;45.926;13.608;2022-12-20T17:54:02;55.87;;;36.87;;
52188;SDS011;38162;45.926;13.608;2022-12-20T17:57:12;52.07;;;34.67;;
52188;SDS011;38162;45.926;13.608;2022-12-20T18:00:06;51.17;;;34.60;;
52188;SDS011;38162;45.926;13.608;2022-12-20T18:14:18;50.57;;;31.07;;
52188;SDS011;38162;45.926;13.608;2022-12-20T18:17:35;47.23;;;32.20;;
52188;SDS011;38162;45.926;13.608;2022-12-20T18:20:02;48.23;;;31.67;;
52188;SDS011;38162;45.926;13.608;2022-12-20T18:22:31;48.03;;;32.20;;
52188;SDS011;38162;45.926;13.608;2022-12-20T18:24:58;50.97;;;31.70;;
52188;SDS011;38162;45.926;13.608;2022-12-20T18:27:25;56.77;;;34.53;;
52188;SDS011;38162;45.926;13.608;2022-12-20T18:29:51;54.57;;;35.30;;
52188;SDS011;38162;45.926;13.608;2022-12-20T18:32:16;58.40;;;34.60;;
52188;SDS011;38162;45.926;13.608;2022-12-20T18:34:42;56.60;;;36.07;;
52188;SDS011;38162;45.926;13.608;2022-12-20T18:37:08;55.27;;;34.30;;
52188;SDS011;38162;45.926;13.608;2022-12-20T18:39:34;54.30;;;35.70;;
52188;SDS011;38162;45.926;13.608;2022-12-20T18:42:00;55.30;;;35.97;;
52188;SDS011;38162;45.926;13.608;2022-12-20T18:44:26;54.70;;;34.60;;
52188;SDS011;38162;45.926;13.608;2022-12-20T18:46:52;51.73;;;33.17;;
52188;SDS011;38162;45.926;13.608;2022-12-20T18:49:18;54.87;;;33.93;;
52188;SDS011;38162;45.926;13.608;2022-12-20T18:51:44;55.23;;;32.93;;
52188;SDS011;38162;45.926;13.608;2022-12-20T18:54:11;51.77;;;33.03;;
52188;SDS011;38162;45.926;13.608;2022-12-20T18:56:38;55.90;;;34.20;;
52188;SDS011;38162;45.926;13.608;2022-12-20T18:59:05;46.93;;;31.83;;
52188;SDS011;38162;45.926;13.608;2022-12-20T19:01:32;50.33;;;33.00;;
52188;SDS011;38162;45.926;13.608;2022-12-20T19:04:00;50.63;;;32.07;;
52188;SDS011;38162;45.926;13.608;2022-12-20T19:06:27;48.33;;;31.77;;